Time;durP1;ratioP1;P1;durP2;ratioP2;P2;SDS_P1;SDS_P2;PMS_P1;PMS_P2;Temp;Humidity;BMP_temperature;BMP_pressure;BME280_temperature;BME280_humidity;BME280_pressure;Samples;Min_cycle;Max_cycle;Signal;HPM_P1;HPM_P2
2022/03/22 00:02:16;;;;;;;0.60;0.60;;;7.70;79.90;;;;;;4993880;28;20395;-73
2022/03/22 00:04:42;;;;;;;0.40;0.30;;;7.70;80.20;;;;;;4993252;28;20383;-72
2022/03/22 00:07:08;;;;;;;0.40;0.30;;;7.70;80.20;;;;;;4992975;28;20441;-73
2022/03/22 00:09:34;;;;;;;0.40;0.40;;;7.60;80.00;;;;;;5004129;28;20493;-73
2022/03/22 00:12:00;;;;;;;0.40;0.20;;;7.60;79.90;;;;;;5002756;28;20402;-73
2022/03/22 00:14:26;;;;;;;0.60;0.60;;;7.60;80.40;;;;;;4992858;28;20387;-73
2022/03/22 00:16:53;;;;;;;0.40;0.30;;;7.60;79.40;;;;;;5028554;28;20417;-74
2022/03/22 00:19:20;;;;;;;0.70;0.50;;;7.60;80.00;;;;;;5032194;28;20470;-74
2022/03/22 00:21:46;;;;;;;0.40;0.20;;;7.60;79.50;;;;;;5028242;28;20440;-73
2022/03/22 00:24:12;;;;;;;0.80;0.70;;;7.60;80.00;;;;;;5007575;28;20405;-73
2022/03/22 00:26:38;;;;;;;0.40;0.30;;;7.60;79.50;;;;;;5009230;28;20460;-73
2022/03/22 00:29:04;;;;;;;0.40;0.27;;;7.60;79.30;;;;;;4991948;28;20382;-72
2022/03/22 00:31:30;;;;;;;0.40;0.30;;;7.60;80.40;;;;;;4992490;28;20411;-73
2022/03/22 00:33:56;;;;;;;0.40;0.30;;;7.60;79.50;;;;;;4990979;28;20402;-73
2022/03/22 00:36:23;;;;;;;0.40;0.30;;;7.60;80.50;;;;;;4992201;28;20725;-73
2022/03/22 00:38:49;;;;;;;0.60;0.60;;;7.50;80.60;;;;;;4992231;28;20397;-74
2022/03/22 00:41:16;;;;;;;0.40;0.22;;;7.30;81.00;;;;;;4991480;28;20457;-72
2022/03/22 00:43:43;;;;;;;0.40;0.20;;;7.30;82.10;;;;;;4992249;28;20945;-72
2022/03/22 00:46:09;;;;;;;0.40;0.30;;;7.20;82.80;;;;;;4990352;28;20405;-74
2022/03/22 00:48:35;;;;;;;0.40;0.20;;;7.20;83.40;;;;;;4991840;28;20414;-72
2022/03/22 00:51:01;;;;;;;0.40;0.25;;;7.10;83.30;;;;;;4991971;28;20477;-72
2022/03/22 00:53:27;;;;;;;3.20;2.40;;;7.10;83.80;;;;;;4991302;28;21214;-72
2022/03/22 00:55:53;;;;;;;1.10;1.00;;;7.00;84.10;;;;;;4992383;28;20383;-74
2022/03/22 00:58:21;;;;;;;0.80;0.80;;;6.90;84.90;;;;;;4991430;28;20379;-72
2022/03/22 01:00:48;;;;;;;0.50;0.50;;;7.00;83.90;;;;;;4991996;28;20391;-74
2022/03/22 01:03:14;;;;;;;0.40;0.20;;;6.90;84.70;;;;;;4992071;28;20771;-73
2022/03/22 01:05:40;;;;;;;0.40;0.30;;;6.80;85.60;;;;;;4990114;28;20433;-72
2022/03/22 01:08:11;;;;;;;0.60;0.40;;;6.70;85.70;;;;;;4992237;28;20890;-73
2022/03/22 01:10:41;;;;;;;1.10;1.10;;;6.70;85.50;;;;;;5005533;28;20516;-72
2022/03/22 01:13:08;;;;;;;0.40;0.30;;;6.70;86.00;;;;;;5011756;28;20387;-73
2022/03/22 01:15:35;;;;;;;0.40;0.25;;;6.70;86.30;;;;;;5010602;28;20381;-72
2022/03/22 01:18:07;;;;;;;0.40;0.20;;;6.60;85.80;;;;;;5011449;28;20439;-73
2022/03/22 01:20:40;;;;;;;0.40;0.40;;;6.70;86.90;;;;;;5010919;28;20387;-72
2022/03/22 01:23:07;;;;;;;0.40;0.20;;;6.60;86.40;;;;;;5011613;28;20503;-72
2022/03/22 01:25:34;;;;;;;0.40;0.30;;;6.50;88.40;;;;;;5010653;28;20380;-72
2022/03/22 01:28:02;;;;;;;0.47;0.43;;;6.50;87.60;;;;;;5011258;28;20480;-72
2022/03/22 01:30:29;;;;;;;8.70;1.10;;;6.50;87.60;;;;;;5011194;28;20734;-72
2022/03/22 01:32:56;;;;;;;0.50;0.50;;;6.40;87.50;;;;;;5010254;28;20461;-71
2022/03/22 01:35:24;;;;;;;0.40;0.20;;;6.30;89.60;;;;;;5010844;28;20886;-72
2022/03/22 01:37:50;;;;;;;1.80;1.00;;;6.20;90.30;;;;;;5010316;28;20779;-72
2022/03/22 01:40:18;;;;;;;0.40;0.40;;;6.00;90.80;;;;;;5011526;28;20458;-72
2022/03/22 01:42:45;;;;;;;0.40;0.40;;;6.00;91.40;;;;;;5010685;28;20483;-71
2022/03/22 01:45:11;;;;;;;0.40;0.30;;;6.00;91.20;;;;;;5010459;28;20409;-72
2022/03/22 01:47:40;;;;;;;0.50;0.50;;;6.00;91.30;;;;;;5010814;28;20385;-72
2022/03/22 01:50:08;;;;;;;0.50;0.50;;;6.00;91.00;;;;;;5009672;28;20416;-72
2022/03/22 01:52:39;;;;;;;1.00;0.90;;;6.00;91.30;;;;;;5009394;28;20395;-72
2022/03/22 01:55:06;;;;;;;0.40;0.20;;;6.00;90.80;;;;;;5010006;28;20381;-71
2022/03/22 01:57:33;;;;;;;0.40;0.30;;;5.90;91.10;;;;;;5010709;28;20393;-72
2022/03/22 02:00:00;;;;;;;1.90;1.80;;;5.90;90.80;;;;;;5010142;28;20429;-71
2022/03/22 02:07:58;;;;;;;0.40;0.30;;;5.90;91.20;;;;;;5010599;28;20746;-73
2022/03/22 02:10:24;;;;;;;1.20;1.20;;;5.80;91.40;;;;;;4996067;28;20442;-72
2022/03/22 02:12:49;;;;;;;0.85;0.85;;;5.80;91.60;;;;;;4990633;28;20386;-73
2022/03/22 02:15:16;;;;;;;0.90;0.90;;;5.60;91.70;;;;;;4990242;28;20381;-72
2022/03/22 02:17:45;;;;;;;0.43;0.35;;;5.60;92.00;;;;;;4990874;28;20449;-73
2022/03/22 02:20:14;;;;;;;0.60;0.50;;;5.60;91.90;;;;;;4991052;28;20441;-73
2022/03/22 02:22:58;;;;;;;0.40;0.30;;;5.50;92.10;;;;;;4990707;28;20379;-72
2022/03/22 02:25:24;;;;;;;0.43;0.32;;;5.60;92.00;;;;;;4990073;28;20391;-72
2022/03/22 02:27:53;;;;;;;2.25;2.15;;;5.60;91.80;;;;;;4990848;28;20856;-73
2022/03/22 02:30:20;;;;;;;0.90;0.70;;;5.50;92.10;;;;;;4990426;28;20468;-72
2022/03/22 02:32:50;;;;;;;1.00;1.00;;;5.40;92.10;;;;;;4990316;28;20477;-72
2022/03/22 02:35:16;;;;;;;0.40;0.30;;;5.40;92.20;;;;;;4990640;28;20425;-73
2022/03/22 02:37:42;;;;;;;0.40;0.20;;;5.40;92.40;;;;;;4990135;28;20402;-73
2022/03/22 02:40:08;;;;;;;0.70;0.60;;;5.40;92.60;;;;;;4991215;28;20406;-73
2022/03/22 02:42:34;;;;;;;0.40;0.20;;;5.40;92.30;;;;;;4990022;28;20390;-73
2022/03/22 02:45:00;;;;;;;0.40;0.20;;;5.30;92.10;;;;;;4990803;28;20390;-73
2022/03/22 02:47:26;;;;;;;0.40;0.40;;;5.30;92.60;;;;;;4990796;28;20440;-73
2022/03/22 02:49:52;;;;;;;0.40;0.40;;;5.40;92.50;;;;;;4990276;28;21041;-72
2022/03/22 02:52:17;;;;;;;0.40;0.40;;;5.30;92.30;;;;;;4990743;28;20382;-73
2022/03/22 02:54:43;;;;;;;0.40;0.30;;;5.40;92.20;;;;;;4989990;28;20449;-72
2022/03/22 02:57:08;;;;;;;0.60;0.60;;;5.20;92.50;;;;;;4989576;28;20421;-74
2022/03/22 02:59:34;;;;;;;0.40;0.20;;;5.30;92.60;;;;;;4991009;28;20730;-73
2022/03/22 03:02:01;;;;;;;0.70;0.70;;;5.30;92.50;;;;;;4989721;28;20382;-72
2022/03/22 03:04:26;;;;;;;0.40;0.30;;;5.10;93.00;;;;;;4990559;28;20716;-73
2022/03/22 03:06:52;;;;;;;0.40;0.20;;;5.00;93.20;;;;;;4989535;28;20441;-73
2022/03/22 03:09:18;;;;;;;0.40;0.20;;;5.00;93.10;;;;;;4994669;28;20790;-72
2022/03/22 03:11:43;;;;;;;0.40;0.30;;;4.90;93.60;;;;;;5010156;28;20393;-72
2022/03/22 03:16:53;;;;;;;0.40;0.30;;;5.00;94.00;;;;;;5012895;28;20446;-70
2022/03/22 03:19:19;;;;;;;0.40;0.20;;;5.00;93.30;;;;;;5013778;28;20389;-71
2022/03/22 03:21:44;;;;;;;0.80;0.80;;;5.00;93.10;;;;;;5013366;28;20387;-72
2022/03/22 03:24:10;;;;;;;0.50;0.50;;;5.00;92.90;;;;;;5012841;28;20380;-73
2022/03/22 03:26:36;;;;;;;0.40;0.20;;;5.00;93.00;;;;;;5012150;28;20396;-72
2022/03/22 03:29:02;;;;;;;0.40;0.30;;;4.90;93.30;;;;;;5012644;28;20467;-72
2022/03/22 03:31:27;;;;;;;0.40;0.30;;;4.90;93.20;;;;;;5013098;28;20870;-72
2022/03/22 03:33:54;;;;;;;0.40;0.30;;;4.90;93.30;;;;;;5012948;28;20425;-72
2022/03/22 03:36:20;;;;;;;1.40;0.60;;;4.90;93.70;;;;;;5012528;28;21024;-71
2022/03/22 03:38:46;;;;;;;0.40;0.40;;;4.80;93.70;;;;;;5013570;28;20510;-72
2022/03/22 03:43:57;;;;;;;0.40;0.40;;;4.80;93.50;;;;;;5013332;28;20424;-72
2022/03/22 03:49:08;;;;;;;0.40;0.30;;;5.10;93.60;;;;;;5012644;28;20380;-71
2022/03/22 03:51:38;;;;;;;0.40;0.30;;;5.00;92.50;;;;;;5012497;28;20409;-71
2022/03/22 03:54:03;;;;;;;2.20;0.60;;;5.00;92.70;;;;;;5013549;28;20435;-71
2022/03/22 03:56:29;;;;;;;0.50;0.40;;;4.80;93.00;;;;;;5011968;28;20736;-70
2022/03/22 03:58:57;;;;;;;0.40;0.30;;;4.90;93.30;;;;;;5012543;28;20389;-72
2022/03/22 04:01:24;;;;;;;0.40;0.20;;;5.00;92.80;;;;;;5011997;28;20400;-71
2022/03/22 04:03:49;;;;;;;0.40;0.20;;;4.90;92.70;;;;;;5012453;28;20625;-73
2022/03/22 04:06:15;;;;;;;0.40;0.30;;;4.80;92.70;;;;;;5012546;28;20381;-71
2022/03/22 04:08:41;;;;;;;0.85;0.75;;;4.90;93.60;;;;;;5010012;28;21079;-72
2022/03/22 04:11:07;;;;;;;0.40;0.20;;;4.90;92.70;;;;;;4993576;28;20423;-71
2022/03/22 04:13:32;;;;;;;0.40;0.25;;;4.90;93.40;;;;;;4992284;28;20394;-71
2022/03/22 04:15:58;;;;;;;0.40;0.20;;;4.80;93.30;;;;;;4993432;28;20401;-71
2022/03/22 04:18:24;;;;;;;0.40;0.30;;;4.90;93.20;;;;;;4993222;28;20532;-72
2022/03/22 04:20:50;;;;;;;0.60;0.60;;;4.80;92.90;;;;;;4992098;28;20454;-71
2022/03/22 04:23:16;;;;;;;0.40;0.30;;;4.80;93.30;;;;;;4992608;28;20395;-72
2022/03/22 04:25:41;;;;;;;0.40;0.28;;;4.60;94.30;;;;;;4991739;28;20394;-71
2022/03/22 04:33:36;;;;;;;0.40;0.20;;;4.50;96.10;;;;;;4992538;28;20521;-71
2022/03/22 04:36:03;;;;;;;0.40;0.20;;;4.40;95.30;;;;;;4992563;28;20394;-72
2022/03/22 04:38:29;;;;;;;1.90;0.90;;;4.20;96.20;;;;;;4992682;28;20410;-72
2022/03/22 04:40:54;;;;;;;0.40;0.30;;;4.10;97.30;;;;;;4992138;28;20402;-71
2022/03/22 04:43:20;;;;;;;0.90;0.90;;;4.00;98.20;;;;;;4992825;28;20387;-71
2022/03/22 04:45:46;;;;;;;0.40;0.30;;;3.90;98.80;;;;;;4992261;28;20426;-71
2022/03/22 04:48:13;;;;;;;0.40;0.40;;;4.00;99.10;;;;;;4992725;28;20393;-71
2022/03/22 04:50:38;;;;;;;0.40;0.20;;;3.90;99.00;;;;;;4992811;28;20437;-72
2022/03/22 04:58:34;;;;;;;0.40;0.30;;;3.90;98.90;;;;;;4992410;28;20748;-73
2022/03/22 05:01:00;;;;;;;0.50;0.50;;;3.80;99.10;;;;;;4991785;28;20416;-72
2022/03/22 05:03:25;;;;;;;0.40;0.20;;;3.80;98.90;;;;;;4992436;28;20886;-73
2022/03/22 05:08:35;;;;;;;0.40;0.20;;;3.80;98.10;;;;;;4992433;28;20921;-73
2022/03/22 05:11:28;;;;;;;0.40;0.20;;;3.90;98.00;;;;;;5010044;28;20416;-72
2022/03/22 05:13:56;;;;;;;0.40;0.20;;;3.90;97.60;;;;;;5011979;28;20396;-74
2022/03/22 05:16:24;;;;;;;0.40;0.30;;;3.90;97.70;;;;;;5011051;28;20407;-73
2022/03/22 05:18:50;;;;;;;0.40;0.40;;;3.80;97.80;;;;;;5011759;28;20743;-73
2022/03/22 05:21:17;;;;;;;0.73;0.63;;;3.90;97.50;;;;;;5010888;28;20400;-73
2022/03/22 05:23:47;;;;;;;0.40;0.30;;;3.80;98.20;;;;;;5011514;28;20415;-72
2022/03/22 05:26:13;;;;;;;0.40;0.20;;;3.70;99.20;;;;;;5010668;28;20408;-73
2022/03/22 05:28:40;;;;;;;0.40;0.30;;;3.70;98.80;;;;;;5011735;28;20385;-74
2022/03/22 05:31:08;;;;;;;0.50;0.50;;;3.70;98.60;;;;;;5011500;28;20440;-73
2022/03/22 05:33:34;;;;;;;0.57;0.32;;;3.70;99.00;;;;;;5010944;28;20389;-74
2022/03/22 05:36:00;;;;;;;0.40;0.30;;;3.60;99.10;;;;;;5010454;28;20393;-74
2022/03/22 05:38:26;;;;;;;0.40;0.30;;;3.60;99.90;;;;;;5010270;28;20401;-73
2022/03/22 05:40:54;;;;;;;1.00;1.00;;;3.60;99.90;;;;;;5011224;28;20944;-74
2022/03/22 05:43:20;;;;;;;0.50;0.50;;;3.50;99.50;;;;;;5010804;28;20468;-73
2022/03/22 05:45:48;;;;;;;0.40;0.20;;;3.60;99.80;;;;;;5008835;28;20395;-73
2022/03/22 05:48:18;;;;;;;0.50;0.50;;;3.60;99.70;;;;;;5008157;28;20391;-73
2022/03/22 05:50:44;;;;;;;0.40;0.30;;;3.60;99.90;;;;;;5006280;28;20412;-71
2022/03/22 05:53:10;;;;;;;0.40;0.20;;;3.60;99.90;;;;;;5012789;28;20814;-73
2022/03/22 05:55:40;;;;;;;0.40;0.20;;;3.70;99.80;;;;;;5030142;28;20415;-73
2022/03/22 05:58:07;;;;;;;0.90;0.60;;;3.70;99.80;;;;;;5027515;28;20390;-72
2022/03/22 06:00:36;;;;;;;0.60;0.60;;;3.70;99.80;;;;;;5010495;28;20471;-72
2022/03/22 06:03:02;;;;;;;0.40;0.20;;;3.70;99.40;;;;;;4985716;28;20402;-72
2022/03/22 06:05:29;;;;;;;6.20;1.00;;;3.60;99.30;;;;;;4996860;28;20447;-72
2022/03/22 06:07:58;;;;;;;0.40;0.40;;;3.70;99.30;;;;;;5004670;28;20397;-72
2022/03/22 06:10:25;;;;;;;0.60;0.60;;;3.70;99.40;;;;;;4999605;28;20504;-74
2022/03/22 06:12:53;;;;;;;0.40;0.30;;;3.70;99.80;;;;;;5006969;28;20454;-73
2022/03/22 06:15:23;;;;;;;0.47;0.35;;;3.80;98.80;;;;;;5010801;28;20439;-73
2022/03/22 06:17:51;;;;;;;0.80;0.80;;;3.90;98.50;;;;;;5004494;28;20496;-73
2022/03/22 06:20:20;;;;;;;1.20;0.90;;;4.00;98.30;;;;;;5011495;28;20417;-72
2022/03/22 06:22:46;;;;;;;0.40;0.40;;;4.10;98.10;;;;;;5007800;28;20387;-71
2022/03/22 06:25:16;;;;;;;0.40;0.20;;;4.30;97.60;;;;;;5008624;28;20389;-72
2022/03/22 06:27:43;;;;;;;0.40;0.22;;;4.30;97.30;;;;;;4997622;28;20397;-72
2022/03/22 06:30:11;;;;;;;0.40;0.20;;;4.40;96.80;;;;;;5009566;28;20413;-72
2022/03/22 06:32:47;;;;;;;0.40;0.20;;;4.50;97.00;;;;;;5010180;28;20392;-71
2022/03/22 06:35:23;;;;;;;0.40;0.40;;;4.50;96.00;;;;;;5006475;28;20515;-72
2022/03/22 06:37:50;;;;;;;0.40;0.20;;;4.60;96.40;;;;;;5010372;28;20499;-73
2022/03/22 06:40:17;;;;;;;0.40;0.30;;;4.70;96.00;;;;;;5002170;28;20392;-73
2022/03/22 06:42:43;;;;;;;0.60;0.60;;;4.70;95.20;;;;;;5010311;28;20411;-71
2022/03/22 06:45:11;;;;;;;0.50;0.50;;;4.70;94.90;;;;;;5008671;28;20938;-72
2022/03/22 06:47:39;;;;;;;0.80;0.80;;;4.70;94.90;;;;;;5012333;28;20388;-72
2022/03/22 06:50:06;;;;;;;0.40;0.22;;;4.80;94.70;;;;;;5013423;28;20496;-72
2022/03/22 06:52:32;;;;;;;0.40;0.40;;;4.70;95.00;;;;;;5014049;28;20838;-72
2022/03/22 06:54:58;;;;;;;0.40;0.38;;;4.80;95.40;;;;;;5014064;28;20482;-73
2022/03/22 06:57:24;;;;;;;0.40;0.40;;;5.10;95.40;;;;;;5013811;28;20954;-72
2022/03/22 06:59:49;;;;;;;0.40;0.20;;;5.20;94.60;;;;;;5013205;28;20393;-73
2022/03/22 07:02:18;;;;;;;0.40;0.30;;;5.20;94.60;;;;;;5013537;28;20381;-72
2022/03/22 07:04:44;;;;;;;0.40;0.20;;;5.30;94.30;;;;;;5013926;28;20899;-72
2022/03/22 07:07:10;;;;;;;0.40;0.40;;;5.50;93.70;;;;;;5013412;28;20440;-72
2022/03/22 07:09:36;;;;;;;0.40;0.20;;;5.60;93.40;;;;;;5006456;28;20426;-72
2022/03/22 07:12:02;;;;;;;0.40;0.30;;;5.60;92.70;;;;;;4994703;28;20440;-72
2022/03/22 07:14:28;;;;;;;0.40;0.30;;;5.70;92.50;;;;;;4993502;28;20795;-72
2022/03/22 07:16:55;;;;;;;0.40;0.30;;;5.90;92.40;;;;;;4994470;28;20410;-72
2022/03/22 07:19:23;;;;;;;0.40;0.20;;;5.90;92.60;;;;;;4993714;28;20505;-72
2022/03/22 07:21:49;;;;;;;0.40;0.30;;;5.90;92.00;;;;;;4994224;28;20404;-73
2022/03/22 07:24:21;;;;;;;0.40;0.30;;;6.00;92.20;;;;;;4994372;28;20391;-73
2022/03/22 07:26:47;;;;;;;0.40;0.20;;;6.00;92.10;;;;;;4994086;28;20392;-72
2022/03/22 07:29:13;;;;;;;1.40;1.30;;;6.20;92.30;;;;;;4994373;28;20387;-73
2022/03/22 07:31:40;;;;;;;0.80;0.80;;;6.20;92.20;;;;;;4992944;28;20880;-73
2022/03/22 07:34:07;;;;;;;0.40;0.20;;;6.40;92.80;;;;;;4994067;28;20413;-72
2022/03/22 07:36:35;;;;;;;0.40;0.30;;;6.50;91.40;;;;;;4993274;28;20390;-72
2022/03/22 07:39:02;;;;;;;0.90;0.90;;;6.70;90.40;;;;;;4993911;28;20390;-72
2022/03/22 07:41:28;;;;;;;0.40;0.30;;;6.80;91.10;;;;;;4993192;28;20485;-72
2022/03/22 07:43:54;;;;;;;0.60;0.60;;;6.80;90.60;;;;;;4993775;28;20528;-72
2022/03/22 07:46:23;;;;;;;0.40;0.30;;;7.00;88.10;;;;;;4993970;28;20391;-72
2022/03/22 07:48:49;;;;;;;0.90;0.80;;;7.10;88.40;;;;;;4993083;28;20458;-72
2022/03/22 07:54:00;;;;;;;0.40;0.30;;;7.40;85.30;;;;;;4993843;28;20490;-72
2022/03/22 07:56:26;;;;;;;0.40;0.30;;;7.40;84.00;;;;;;4992385;28;20409;-72
2022/03/22 07:58:51;;;;;;;0.40;0.30;;;7.50;84.00;;;;;;4991638;28;21248;-72
2022/03/22 08:01:17;;;;;;;0.40;0.40;;;7.60;87.50;;;;;;4993461;28;20379;-72
2022/03/22 08:03:43;;;;;;;0.70;0.70;;;7.80;84.30;;;;;;4991571;28;20394;-72
2022/03/22 08:06:09;;;;;;;0.40;0.20;;;8.00;83.90;;;;;;4993226;28;20469;-72
2022/03/22 08:08:37;;;;;;;1.10;0.70;;;8.10;82.60;;;;;;4992986;28;20410;-71
2022/03/22 08:11:06;;;;;;;0.40;0.30;;;8.30;82.60;;;;;;5011059;28;20432;-72
2022/03/22 08:13:34;;;;;;;0.40;0.30;;;8.60;80.90;;;;;;5013103;28;20392;-72
2022/03/22 08:16:00;;;;;;;0.40;0.35;;;8.80;80.40;;;;;;5011936;28;20393;-72
2022/03/22 08:18:26;;;;;;;0.60;0.60;;;8.90;79.40;;;;;;5012715;28;20451;-72
2022/03/22 08:20:52;;;;;;;0.40;0.30;;;8.90;79.20;;;;;;5012155;28;20435;-73
2022/03/22 08:23:18;;;;;;;0.60;0.60;;;9.10;80.40;;;;;;5012511;28;20384;-72
2022/03/22 08:25:44;;;;;;;1.00;0.80;;;9.20;80.50;;;;;;5012230;28;20811;-72
2022/03/22 08:28:10;;;;;;;0.40;0.20;;;9.40;80.40;;;;;;5011839;28;20381;-72
2022/03/22 08:30:38;;;;;;;0.70;0.65;;;9.50;80.60;;;;;;5012525;28;20405;-73
2022/03/22 08:33:09;;;;;;;0.40;0.20;;;9.40;81.00;;;;;;5010524;28;20392;-72
2022/03/22 08:35:45;;;;;;;2.00;1.00;;;9.50;80.70;;;;;;5012288;28;20917;-72
2022/03/22 08:38:12;;;;;;;1.10;1.00;;;9.60;80.40;;;;;;5011911;28;20400;-73
2022/03/22 08:40:39;;;;;;;0.52;0.52;;;9.60;79.70;;;;;;5012547;28;20399;-72
2022/03/22 08:43:08;;;;;;;0.50;0.40;;;9.60;79.80;;;;;;5012027;28;20841;-72
2022/03/22 08:45:35;;;;;;;0.40;0.30;;;9.70;79.80;;;;;;5012647;28;20447;-72
2022/03/22 08:48:09;;;;;;;0.50;0.50;;;9.70;79.80;;;;;;5011507;28;20398;-72
2022/03/22 08:50:36;;;;;;;0.40;0.30;;;9.80;80.30;;;;;;5012521;28;20405;-72
2022/03/22 08:53:03;;;;;;;0.77;0.77;;;9.90;79.30;;;;;;5011875;28;20408;-71
2022/03/22 08:55:29;;;;;;;0.40;0.30;;;9.90;79.50;;;;;;5010558;28;20476;-72
2022/03/22 08:57:55;;;;;;;0.60;0.60;;;9.90;78.40;;;;;;5011762;28;20803;-71
2022/03/22 09:00:21;;;;;;;0.52;0.47;;;9.90;79.10;;;;;;5011262;28;20400;-72
2022/03/22 09:02:50;;;;;;;1.90;0.70;;;10.00;78.70;;;;;;5010713;28;20480;-72
2022/03/22 09:08:05;;;;;;;1.10;0.80;;;10.00;78.50;;;;;;5012142;28;20415;-72
2022/03/22 09:10:33;;;;;;;1.10;0.80;;;10.00;78.40;;;;;;5009341;28;21051;-72
2022/03/22 09:12:59;;;;;;;2.20;0.90;;;10.20;78.50;;;;;;5011728;28;20921;-72
2022/03/22 09:15:27;;;;;;;0.80;0.80;;;10.20;77.90;;;;;;5010676;28;20384;-72
2022/03/22 09:17:54;;;;;;;0.70;0.70;;;10.40;77.50;;;;;;5011703;28;20388;-71
2022/03/22 09:20:21;;;;;;;0.70;0.70;;;10.50;77.80;;;;;;5010569;28;20407;-71
2022/03/22 09:22:49;;;;;;;0.40;0.20;;;10.50;77.40;;;;;;5011743;28;20381;-72
2022/03/22 09:25:16;;;;;;;0.88;0.88;;;10.50;77.10;;;;;;5011288;28;20467;-72
2022/03/22 09:27:42;;;;;;;1.15;1.05;;;10.60;76.90;;;;;;5011515;28;20393;-72
2022/03/22 09:30:10;;;;;;;0.50;0.50;;;10.40;78.30;;;;;;5011479;28;20425;-72
2022/03/22 09:32:38;;;;;;;0.40;0.20;;;10.70;78.00;;;;;;5010219;28;20480;-72
2022/03/22 09:35:07;;;;;;;0.90;0.90;;;10.80;76.70;;;;;;5011487;28;20405;-72
2022/03/22 09:37:34;;;;;;;0.40;0.40;;;10.90;76.20;;;;;;5009205;28;20404;-72
2022/03/22 09:40:01;;;;;;;0.73;0.73;;;10.90;75.10;;;;;;5010060;28;20543;-72
2022/03/22 09:42:27;;;;;;;1.40;1.30;;;11.00;75.80;;;;;;5010782;28;20392;-72
2022/03/22 09:44:53;;;;;;;0.40;0.20;;;11.10;75.40;;;;;;5009945;28;20393;-72
2022/03/22 09:47:19;;;;;;;0.40;0.30;;;11.20;75.90;;;;;;5011094;28;20391;-72
2022/03/22 09:49:47;;;;;;;0.60;0.50;;;11.30;75.00;;;;;;5010773;28;20862;-72
2022/03/22 09:52:14;;;;;;;0.65;0.65;;;11.30;74.30;;;;;;5011059;28;20376;-72
2022/03/22 09:54:41;;;;;;;4.00;2.20;;;11.50;74.00;;;;;;5010351;28;20400;-72
2022/03/22 09:57:07;;;;;;;2.50;0.90;;;11.50;73.30;;;;;;5009749;28;20387;-73
2022/03/22 09:59:36;;;;;;;1.08;1.08;;;11.50;73.60;;;;;;5010451;28;20943;-72
2022/03/22 10:02:05;;;;;;;0.70;0.70;;;11.50;73.40;;;;;;5009898;28;20689;-72
2022/03/22 10:04:41;;;;;;;0.90;0.90;;;11.60;73.00;;;;;;5009284;28;20471;-72
2022/03/22 10:07:18;;;;;;;1.30;1.20;;;11.60;72.80;;;;;;5010960;28;20499;-72
2022/03/22 10:09:54;;;;;;;0.90;0.90;;;11.70;69.10;;;;;;5010030;28;20417;-72
2022/03/22 10:12:29;;;;;;;0.40;0.30;;;11.80;68.90;;;;;;5011124;28;20388;-72
2022/03/22 10:15:09;;;;;;;1.00;0.80;;;11.90;68.30;;;;;;5009170;28;21336;-72
2022/03/22 10:17:36;;;;;;;0.80;0.70;;;12.00;66.40;;;;;;5009928;28;20381;-72
2022/03/22 10:20:05;;;;;;;0.50;0.50;;;12.10;65.20;;;;;;5009738;28;20491;-72
2022/03/22 10:22:32;;;;;;;0.57;0.57;;;12.20;64.50;;;;;;5011709;28;20753;-72
2022/03/22 10:25:00;;;;;;;0.90;0.80;;;12.20;63.90;;;;;;5014634;28;20726;-72
2022/03/22 10:27:28;;;;;;;0.50;0.50;;;12.40;63.80;;;;;;5014847;28;20789;-72
2022/03/22 10:29:56;;;;;;;0.93;0.85;;;12.50;63.30;;;;;;5014413;28;20413;-73
2022/03/22 10:32:33;;;;;;;1.20;1.10;;;12.50;62.00;;;;;;5014417;28;20468;-71
2022/03/22 10:35:16;;;;;;;0.55;0.55;;;12.70;62.00;;;;;;5014531;28;20507;-72
2022/03/22 10:37:50;;;;;;;0.52;0.47;;;12.80;61.60;;;;;;5013799;28;20892;-72
2022/03/22 10:40:40;;;;;;;0.75;0.75;;;12.80;61.40;;;;;;5014833;28;20400;-72
2022/03/22 10:43:14;;;;;;;0.70;0.70;;;13.10;59.50;;;;;;5014787;28;20392;-72
2022/03/22 10:45:48;;;;;;;0.40;0.40;;;13.00;59.70;;;;;;5013451;28;20389;-72
2022/03/22 10:48:38;;;;;;;0.50;0.50;;;13.30;61.70;;;;;;5014496;28;20417;-72
2022/03/22 10:51:06;;;;;;;0.43;0.32;;;13.40;59.60;;;;;;5012389;28;20415;-72
2022/03/22 10:53:34;;;;;;;0.60;0.50;;;13.60;60.10;;;;;;4996991;28;20425;-72
2022/03/22 10:56:04;;;;;;;1.20;1.10;;;13.80;59.70;;;;;;5013632;28;20392;-72
2022/03/22 10:58:32;;;;;;;1.50;1.38;;;13.60;58.10;;;;;;5014366;28;20409;-71
2022/03/22 11:01:03;;;;;;;0.40;0.32;;;13.70;58.00;;;;;;5013511;28;20396;-72
2022/03/22 11:03:30;;;;;;;1.60;1.30;;;13.80;58.00;;;;;;5014468;28;20404;-72
2022/03/22 11:06:02;;;;;;;0.40;0.20;;;14.10;57.70;;;;;;5013446;28;20477;-71
2022/03/22 11:08:27;;;;;;;1.10;1.00;;;14.00;57.10;;;;;;5013766;28;20730;-71
2022/03/22 11:10:54;;;;;;;2.20;1.30;;;14.30;57.10;;;;;;4996927;28;20435;-72
2022/03/22 11:13:20;;;;;;;1.20;1.10;;;14.30;56.30;;;;;;4993715;28;20425;-73
2022/03/22 11:15:48;;;;;;;3.40;1.60;;;14.10;55.30;;;;;;4994440;28;20447;-73
2022/03/22 11:18:19;;;;;;;3.80;1.80;;;13.80;54.10;;;;;;4993657;28;20406;-72
2022/03/22 11:20:55;;;;;;;1.20;1.10;;;14.30;54.00;;;;;;4993060;28;20394;-70
2022/03/22 11:23:24;;;;;;;0.40;0.20;;;14.40;53.30;;;;;;4993353;28;20401;-73
2022/03/22 11:25:50;;;;;;;0.40;0.30;;;14.70;53.20;;;;;;4994283;28;20491;-72
2022/03/22 11:28:21;;;;;;;1.00;0.90;;;15.30;52.90;;;;;;4993383;28;20796;-72
2022/03/22 11:30:48;;;;;;;1.40;1.10;;;15.30;49.80;;;;;;4993878;28;20450;-72
2022/03/22 11:36:13;;;;;;;2.20;1.30;;;15.00;50.40;;;;;;4994142;28;20402;-72
2022/03/22 11:38:46;;;;;;;0.50;0.40;;;16.10;49.10;;;;;;4994343;28;20386;-73
2022/03/22 11:44:40;;;;;;;0.40;0.30;;;17.60;46.20;;;;;;4993286;28;20389;-71
2022/03/22 11:47:17;;;;;;;0.90;0.90;;;17.80;44.40;;;;;;4994183;28;20469;-71
2022/03/22 11:50:04;;;;;;;0.90;0.80;;;18.40;43.40;;;;;;4992105;28;20879;-73
2022/03/22 11:52:33;;;;;;;0.40;0.30;;;18.30;44.50;;;;;;4993338;28;20391;-72
2022/03/22 11:55:19;;;;;;;0.70;0.60;;;18.30;41.30;;;;;;4992533;28;20532;-72
2022/03/22 11:57:48;;;;;;;0.40;0.20;;;19.20;41.80;;;;;;4993421;28;20379;-71
2022/03/22 12:00:17;;;;;;;0.40;0.30;;;19.20;40.00;;;;;;4993572;28;20863;-71
2022/03/22 12:02:45;;;;;;;0.40;0.22;;;19.70;40.90;;;;;;4993086;28;20778;-72
2022/03/22 12:05:11;;;;;;;0.50;0.50;;;19.70;39.70;;;;;;4993390;28;20387;-72
2022/03/22 12:07:38;;;;;;;2.80;1.10;;;19.30;40.90;;;;;;4992592;28;20395;-71
2022/03/22 12:10:12;;;;;;;0.40;0.40;;;19.60;39.50;;;;;;5002206;28;20460;-72
2022/03/22 12:12:40;;;;;;;2.10;1.50;;;19.60;38.60;;;;;;5012262;28;20396;-72
2022/03/22 12:15:08;;;;;;;0.40;0.30;;;18.60;40.00;;;;;;5012812;28;20378;-72
2022/03/22 12:17:36;;;;;;;0.40;0.30;;;20.20;38.70;;;;;;5012743;28;20482;-71
2022/03/22 12:20:11;;;;;;;5.10;1.90;;;19.40;37.50;;;;;;5012471;28;20388;-72
2022/03/22 12:22:52;;;;;;;0.40;0.30;;;18.90;38.90;;;;;;5012641;28;20499;-72
2022/03/22 12:25:21;;;;;;;0.40;0.30;;;20.50;38.40;;;;;;5012761;28;20391;-72
2022/03/22 12:27:53;;;;;;;0.95;0.82;;;20.80;36.90;;;;;;5011691;28;20896;-72
2022/03/22 12:30:20;;;;;;;1.00;0.90;;;19.40;36.50;;;;;;5012154;28;20421;-72
2022/03/22 12:32:50;;;;;;;0.40;0.25;;;19.80;36.40;;;;;;5011942;28;20381;-71
2022/03/22 12:35:16;;;;;;;0.40;0.30;;;20.50;37.50;;;;;;5012617;28;20892;-72
2022/03/22 12:37:42;;;;;;;0.80;0.50;;;19.80;36.40;;;;;;5012278;28;20405;-72
2022/03/22 12:40:08;;;;;;;1.90;1.00;;;18.80;39.50;;;;;;5011266;28;20416;-72
2022/03/22 12:42:34;;;;;;;0.83;0.83;;;19.30;42.40;;;;;;5012503;28;20742;-71
2022/03/22 12:45:00;;;;;;;2.30;1.10;;;19.20;37.70;;;;;;5009909;28;20400;-72
2022/03/22 12:47:25;;;;;;;0.50;0.40;;;19.90;37.80;;;;;;5012545;28;20393;-72
2022/03/22 12:49:51;;;;;;;3.10;0.70;;;18.50;39.00;;;;;;5012188;28;20415;-72
2022/03/22 12:52:17;;;;;;;1.70;0.60;;;19.20;42.50;;;;;;5011859;28;20721;-71
2022/03/22 12:54:44;;;;;;;0.60;0.60;;;19.00;37.90;;;;;;5012186;28;20761;-71
2022/03/22 12:57:17;;;;;;;0.40;0.30;;;18.70;36.60;;;;;;5011373;28;20526;-70
2022/03/22 12:59:43;;;;;;;0.40;0.30;;;19.20;36.00;;;;;;5011965;28;20411;-71
2022/03/22 13:02:10;;;;;;;1.40;0.50;;;18.90;35.80;;;;;;5011579;28;20385;-70
2022/03/22 13:04:49;;;;;;;0.40;0.30;;;19.30;32.00;;;;;;5012148;28;20409;-71
2022/03/22 13:07:23;;;;;;;0.40;0.30;;;19.20;33.40;;;;;;5011185;28;20405;-70
2022/03/22 13:12:35;;;;;;;0.60;0.40;;;18.90;35.80;;;;;;4992254;28;20402;-71
2022/03/22 13:15:08;;;;;;;0.40;0.40;;;19.80;34.60;;;;;;4992067;28;20378;-73
2022/03/22 13:17:48;;;;;;;0.65;0.65;;;20.20;35.10;;;;;;4991787;28;20949;-71
2022/03/22 13:20:18;;;;;;;0.40;0.30;;;19.90;34.60;;;;;;4990953;28;20390;-71
2022/03/22 13:23:06;;;;;;;0.60;0.57;;;19.80;34.80;;;;;;4992461;28;20395;-71
2022/03/22 13:25:41;;;;;;;0.50;0.40;;;20.30;35.80;;;;;;4991076;28;20404;-71
2022/03/22 13:28:17;;;;;;;0.40;0.20;;;20.20;34.20;;;;;;4992043;28;20756;-72
2022/03/22 13:30:48;;;;;;;0.40;0.30;;;20.40;32.20;;;;;;4991988;28;20465;-72
2022/03/22 13:33:21;;;;;;;2.25;0.60;;;19.50;33.60;;;;;;4991883;28;20767;-73
2022/03/22 13:36:04;;;;;;;0.40;0.40;;;20.80;33.80;;;;;;4991785;28;20403;-72
2022/03/22 13:38:32;;;;;;;0.40;0.20;;;21.90;34.50;;;;;;4991673;28;20466;-71
2022/03/22 13:41:03;;;;;;;0.70;0.70;;;21.70;34.40;;;;;;4991577;28;20428;-71